Time;durP1;ratioP1;P1;durP2;ratioP2;P2;SDS_P1;SDS_P2;PMS_P1;PMS_P2;Temp;Humidity;BMP_temperature;BMP_pressure;BME280_temperature;BME280_humidity;BME280_pressure;Samples;Min_cycle;Max_cycle;Signal;HPM_P1;HPM_P2
2021/12/03 00:01:29;;;;;;;8.23;3.40;;;0.00;99.90;;;;;;5035983;28;20080;-79
2021/12/03 00:03:55;;;;;;;5.78;3.15;;;-0.10;99.90;;;;;;5022594;28;20048;-79
2021/12/03 00:06:21;;;;;;;7.03;3.38;;;-0.10;99.90;;;;;;5039871;28;20047;-79
2021/12/03 00:08:47;;;;;;;5.18;3.40;;;0.00;99.90;;;;;;5039557;28;20090;-78
2021/12/03 00:11:14;;;;;;;7.35;3.40;;;-0.10;99.90;;;;;;5039888;28;20095;-79
2021/12/03 00:13:41;;;;;;;6.70;3.30;;;-0.10;99.90;;;;;;5039694;28;20076;-79
2021/12/03 00:16:07;;;;;;;6.55;3.50;;;-0.10;99.90;;;;;;5039785;28;20048;-79
2021/12/03 00:18:33;;;;;;;6.82;3.33;;;-0.10;99.90;;;;;;5039495;28;20104;-78
2021/12/03 00:21:03;;;;;;;7.50;2.53;;;-0.10;99.90;;;;;;5039445;28;20083;-79
2021/12/03 00:23:29;;;;;;;6.55;3.22;;;-0.10;99.90;;;;;;5039559;28;20072;-78
2021/12/03 00:25:56;;;;;;;6.93;2.83;;;-0.10;99.90;;;;;;5039888;28;20045;-78
2021/12/03 00:28:21;;;;;;;10.45;3.10;;;-0.10;99.90;;;;;;5039713;28;20124;-78
2021/12/03 00:30:47;;;;;;;10.38;3.28;;;-0.20;99.90;;;;;;5039255;28;20087;-78
2021/12/03 00:33:13;;;;;;;6.68;3.53;;;-0.10;99.90;;;;;;5058142;28;20177;-78
2021/12/03 00:35:39;;;;;;;5.30;3.35;;;-0.10;99.90;;;;;;5056862;28;20028;-78
2021/12/03 00:38:05;;;;;;;9.32;3.53;;;0.00;99.90;;;;;;5039648;28;20087;-79
2021/12/03 00:40:35;;;;;;;7.28;3.72;;;0.00;99.90;;;;;;5039291;28;20131;-79
2021/12/03 00:43:01;;;;;;;7.25;4.00;;;0.00;99.90;;;;;;5056537;28;20098;-79
2021/12/03 00:45:30;;;;;;;12.30;4.00;;;0.10;99.90;;;;;;5039555;28;20072;-79
2021/12/03 00:47:55;;;;;;;10.93;5.13;;;0.20;99.90;;;;;;5046994;28;20041;-81
2021/12/03 00:50:22;;;;;;;8.05;5.75;;;0.20;99.90;;;;;;5030780;28;20380;-81
2021/12/03 00:52:48;;;;;;;9.70;5.03;;;0.30;99.90;;;;;;5048323;28;20041;-81
2021/12/03 00:55:15;;;;;;;7.88;4.63;;;0.20;99.90;;;;;;5046308;28;20040;-81
2021/12/03 00:57:40;;;;;;;11.50;5.63;;;0.20;99.90;;;;;;5043858;28;20091;-81
2021/12/03 01:00:12;;;;;;;11.70;6.20;;;0.20;99.90;;;;;;5030492;28;20037;-81
2021/12/03 01:02:38;;;;;;;11.55;6.65;;;0.20;99.90;;;;;;5031154;28;20040;-81
2021/12/03 01:05:04;;;;;;;9.68;5.43;;;0.30;99.90;;;;;;5046537;28;20093;-81
2021/12/03 01:07:30;;;;;;;10.27;6.50;;;0.30;99.90;;;;;;5048039;28;20047;-81
2021/12/03 01:09:56;;;;;;;9.20;6.07;;;0.20;99.90;;;;;;5047225;28;20045;-81
2021/12/03 01:12:21;;;;;;;13.27;7.78;;;0.30;99.90;;;;;;5047859;28;20408;-81
2021/12/03 01:14:47;;;;;;;11.70;7.10;;;0.30;99.90;;;;;;5047453;28;20040;-81
2021/12/03 01:17:12;;;;;;;10.35;6.88;;;0.30;99.90;;;;;;5065893;28;20045;-81
2021/12/03 01:19:38;;;;;;;14.63;7.65;;;0.30;99.90;;;;;;5031115;28;20044;-81
2021/12/03 01:22:04;;;;;;;12.15;7.80;;;0.30;99.90;;;;;;5047928;28;20048;-82
2021/12/03 01:24:30;;;;;;;17.33;8.02;;;0.30;99.90;;;;;;5047435;28;20044;-81
2021/12/03 01:26:56;;;;;;;14.88;8.05;;;0.30;99.90;;;;;;5041083;28;20074;-81
2021/12/03 01:29:23;;;;;;;11.88;7.63;;;0.30;99.90;;;;;;5035916;28;20048;-81
2021/12/03 01:31:51;;;;;;;11.55;7.68;;;0.40;99.90;;;;;;5037125;28;20459;-81
2021/12/03 01:34:16;;;;;;;11.75;7.50;;;0.40;99.90;;;;;;5036868;28;20048;-81
2021/12/03 01:36:42;;;;;;;16.63;7.78;;;0.40;99.90;;;;;;5037321;28;20368;-81
2021/12/03 01:39:08;;;;;;;11.80;6.45;;;0.30;99.90;;;;;;5035367;28;20488;-81
2021/12/03 01:41:34;;;;;;;15.80;7.82;;;0.40;99.90;;;;;;5019384;28;20037;-81
2021/12/03 01:44:02;;;;;;;14.25;7.97;;;0.40;99.90;;;;;;5039449;28;20036;-81
2021/12/03 01:46:30;;;;;;;12.80;6.90;;;0.30;99.90;;;;;;5039371;28;20045;-81
2021/12/03 01:48:56;;;;;;;10.95;6.93;;;0.40;99.90;;;;;;5056795;28;20072;-81
2021/12/03 01:51:23;;;;;;;12.57;7.63;;;0.40;99.90;;;;;;5022494;28;20048;-81
2021/12/03 01:53:49;;;;;;;15.55;7.88;;;0.40;99.90;;;;;;5039503;28;20052;-81
2021/12/03 01:56:16;;;;;;;12.98;7.97;;;0.40;99.90;;;;;;5041076;28;20479;-81
2021/12/03 01:58:43;;;;;;;16.80;7.85;;;0.40;99.90;;;;;;5024164;28;20041;-81
2021/12/03 02:01:12;;;;;;;11.90;7.20;;;0.40;99.90;;;;;;5026786;28;20049;-81
2021/12/03 02:03:41;;;;;;;11.57;7.25;;;0.30;99.90;;;;;;5045973;28;20103;-81
2021/12/03 02:06:09;;;;;;;14.55;7.30;;;0.40;99.90;;;;;;5045285;28;20098;-81
2021/12/03 02:08:34;;;;;;;12.07;7.57;;;0.40;99.90;;;;;;5044980;28;20045;-81
2021/12/03 02:11:02;;;;;;;12.15;7.22;;;0.40;99.90;;;;;;5045649;28;20045;-81
2021/12/03 02:13:30;;;;;;;13.50;8.00;;;0.40;99.90;;;;;;5045871;28;20045;-81
2021/12/03 02:15:56;;;;;;;13.98;8.30;;;0.30;99.90;;;;;;5043965;28;20399;-81
2021/12/03 02:18:22;;;;;;;14.55;8.20;;;0.30;99.90;;;;;;5044731;28;20048;-81
2021/12/03 02:20:54;;;;;;;13.35;8.13;;;0.30;99.90;;;;;;5043892;28;20055;-81
2021/12/03 02:23:21;;;;;;;15.95;8.25;;;0.30;99.90;;;;;;5045101;28;20051;-81
2021/12/03 02:25:48;;;;;;;12.27;8.15;;;0.30;99.90;;;;;;5045161;28;20120;-81
2021/12/03 02:28:15;;;;;;;13.93;8.52;;;0.30;99.90;;;;;;5030511;28;20091;-81
2021/12/03 02:30:42;;;;;;;17.65;8.27;;;0.40;99.90;;;;;;5030119;28;20072;-81
2021/12/03 02:33:08;;;;;;;11.70;7.60;;;0.30;99.90;;;;;;5045970;28;20128;-81
2021/12/03 02:35:34;;;;;;;12.10;8.00;;;0.40;99.90;;;;;;5046765;28;20045;-81
2021/12/03 02:38:00;;;;;;;20.85;8.65;;;0.40;99.90;;;;;;5046175;28;20048;-81
2021/12/03 02:40:26;;;;;;;14.88;9.00;;;0.30;99.90;;;;;;5046085;28;20071;-81
2021/12/03 02:42:53;;;;;;;19.65;9.00;;;0.40;99.90;;;;;;5047048;28;20037;-81
2021/12/03 02:45:20;;;;;;;15.63;8.60;;;0.30;99.90;;;;;;5030310;28;20049;-81
2021/12/03 02:47:46;;;;;;;13.93;8.27;;;0.30;99.90;;;;;;5029761;28;20047;-81
2021/12/03 02:50:13;;;;;;;14.27;8.35;;;0.30;99.90;;;;;;5045858;28;20045;-81
2021/12/03 02:52:40;;;;;;;13.02;8.52;;;0.30;99.90;;;;;;5029705;28;20037;-81
2021/12/03 02:55:06;;;;;;;15.95;8.48;;;0.30;99.90;;;;;;5046037;28;20067;-81
2021/12/03 02:57:32;;;;;;;14.77;8.52;;;0.30;99.90;;;;;;5044715;28;20029;-81
2021/12/03 02:59:58;;;;;;;13.60;7.40;;;0.30;99.90;;;;;;5046009;28;20127;-81
2021/12/03 03:02:24;;;;;;;13.90;8.38;;;0.30;99.90;;;;;;5045524;28;20041;-81
2021/12/03 03:04:50;;;;;;;15.82;8.13;;;0.30;99.90;;;;;;5030017;28;20052;-81
2021/12/03 03:07:15;;;;;;;11.88;7.18;;;0.30;99.90;;;;;;5045652;28;20147;-81
2021/12/03 03:09:44;;;;;;;11.35;8.10;;;0.30;99.90;;;;;;5046649;28;20414;-81
2021/12/03 03:12:11;;;;;;;14.40;8.60;;;0.20;99.90;;;;;;5030011;28;20048;-81
2021/12/03 03:14:44;;;;;;;12.23;7.13;;;0.30;99.90;;;;;;5045963;28;20041;-81
2021/12/03 03:17:10;;;;;;;13.32;7.85;;;0.20;99.90;;;;;;5045894;28;20136;-81
2021/12/03 03:19:35;;;;;;;13.35;7.93;;;0.20;99.90;;;;;;5044974;28;20316;-80
2021/12/03 03:22:01;;;;;;;13.10;7.95;;;0.20;99.90;;;;;;5045697;28;20044;-80
2021/12/03 03:24:27;;;;;;;10.90;7.32;;;0.20;99.90;;;;;;5044978;28;20407;-80
2021/12/03 03:26:53;;;;;;;14.68;8.30;;;0.20;99.90;;;;;;5045526;28;20045;-80
2021/12/03 03:29:19;;;;;;;11.88;7.95;;;0.20;99.90;;;;;;5045436;28;20047;-81
2021/12/03 03:31:46;;;;;;;9.95;7.40;;;0.30;99.90;;;;;;5045517;28;20041;-81
2021/12/03 03:34:11;;;;;;;12.98;7.60;;;0.20;99.90;;;;;;5046101;28;20060;-81
2021/12/03 03:36:39;;;;;;;12.82;8.70;;;0.20;99.90;;;;;;5046394;28;20037;-81
2021/12/03 03:39:07;;;;;;;12.75;7.18;;;0.20;99.90;;;;;;5047946;28;20079;-80
2021/12/03 03:41:33;;;;;;;14.43;8.55;;;0.30;99.90;;;;;;5032959;28;20047;-80
2021/12/03 03:43:58;;;;;;;13.95;7.82;;;0.20;99.90;;;;;;5032458;28;20069;-81
2021/12/03 03:46:24;;;;;;;11.93;8.30;;;0.30;99.90;;;;;;5033692;28;20056;-81
2021/12/03 03:48:50;;;;;;;10.13;7.78;;;0.30;99.90;;;;;;5049195;28;20724;-81
2021/12/03 03:51:16;;;;;;;13.07;8.23;;;0.30;99.90;;;;;;5068950;28;20075;-81
2021/12/03 03:53:42;;;;;;;19.88;7.60;;;0.30;99.90;;;;;;5063474;28;20043;-80
2021/12/03 03:56:08;;;;;;;9.50;7.00;;;0.20;99.90;;;;;;5046895;28;20013;-81
2021/12/03 03:58:37;;;;;;;15.75;9.32;;;0.30;99.90;;;;;;5054316;28;20048;-81
2021/12/03 04:01:03;;;;;;;11.15;8.05;;;0.30;99.90;;;;;;5051408;28;20040;-80
2021/12/03 04:03:30;;;;;;;14.25;7.80;;;0.40;99.90;;;;;;5050749;28;20045;-81
2021/12/03 04:05:56;;;;;;;11.95;7.60;;;0.30;99.90;;;;;;5050673;28;20487;-81
2021/12/03 04:08:22;;;;;;;11.90;7.82;;;0.30;99.90;;;;;;5050257;28;20040;-81
2021/12/03 04:10:48;;;;;;;12.38;7.90;;;0.30;99.90;;;;;;5050594;28;20101;-81
2021/12/03 04:13:13;;;;;;;16.55;8.27;;;0.30;99.90;;;;;;5051289;28;20040;-81
2021/12/03 04:15:40;;;;;;;11.43;7.30;;;0.30;99.90;;;;;;5050461;28;20636;-81
2021/12/03 04:18:05;;;;;;;15.40;7.43;;;0.30;99.90;;;;;;5034456;28;20075;-81
2021/12/03 04:20:31;;;;;;;15.88;8.23;;;0.30;99.90;;;;;;5051215;28;20048;-81
2021/12/03 04:22:56;;;;;;;13.30;7.38;;;0.20;99.90;;;;;;5050359;28;20085;-81
2021/12/03 04:25:23;;;;;;;12.60;7.30;;;0.30;99.90;;;;;;5050921;28;20052;-81
2021/12/03 04:27:49;;;;;;;11.88;7.78;;;0.30;99.90;;;;;;5050547;28;20041;-81
2021/12/03 04:30:21;;;;;;;15.05;7.75;;;0.30;99.90;;;;;;5032533;28;20071;-81
2021/12/03 04:32:47;;;;;;;14.63;8.07;;;0.30;99.90;;;;;;5050382;28;20103;-81
2021/12/03 04:35:13;;;;;;;11.82;8.00;;;0.30;99.90;;;;;;5049965;28;20033;-81
2021/12/03 04:37:38;;;;;;;19.50;8.25;;;0.30;99.90;;;;;;5033551;28;20080;-81
2021/12/03 04:40:06;;;;;;;11.60;7.50;;;0.30;99.90;;;;;;5049606;28;20052;-81
2021/12/03 04:42:32;;;;;;;12.90;7.82;;;0.30;99.90;;;;;;5049897;28;20045;-81
2021/12/03 04:44:58;;;;;;;10.88;8.27;;;0.40;99.90;;;;;;5050859;28;20051;-81
2021/12/03 04:47:23;;;;;;;13.38;7.95;;;0.30;99.90;;;;;;5049653;28;20048;-80
2021/12/03 04:49:49;;;;;;;15.15;8.38;;;0.40;99.90;;;;;;5049046;28;20076;-81
2021/12/03 04:52:14;;;;;;;17.40;7.93;;;0.40;99.90;;;;;;5050358;28;20491;-81
2021/12/03 04:54:42;;;;;;;11.23;7.63;;;0.40;99.90;;;;;;5050206;28;20052;-81
2021/12/03 04:57:08;;;;;;;17.80;8.13;;;0.50;99.90;;;;;;5050201;28;20051;-81
2021/12/03 04:59:33;;;;;;;11.75;7.63;;;0.50;99.90;;;;;;5049553;28;20123;-81
2021/12/03 05:01:59;;;;;;;12.60;8.43;;;0.50;99.90;;;;;;5049505;28;20037;-81
2021/12/03 05:04:25;;;;;;;12.25;6.72;;;0.50;99.90;;;;;;5049253;28;20086;-80
2021/12/03 05:07:07;;;;;;;14.02;7.22;;;0.50;99.90;;;;;;5048887;28;20048;-80
2021/12/03 05:09:32;;;;;;;12.60;7.23;;;0.60;99.90;;;;;;5048482;28;20112;-81
2021/12/03 05:11:59;;;;;;;13.27;7.93;;;0.50;99.90;;;;;;5049191;28;20436;-81
2021/12/03 05:14:24;;;;;;;14.13;7.45;;;0.60;99.90;;;;;;5048494;28;20064;-81
2021/12/03 05:16:50;;;;;;;17.95;8.98;;;0.60;99.90;;;;;;5049664;28;20045;-81
2021/12/03 05:19:16;;;;;;;16.08;8.75;;;0.60;99.90;;;;;;5066150;28;20058;-81
2021/12/03 05:21:43;;;;;;;12.45;8.05;;;0.70;99.90;;;;;;5048598;28;20052;-81
2021/12/03 05:24:09;;;;;;;13.05;6.95;;;0.70;99.90;;;;;;5048511;28;20115;-81
2021/12/03 05:26:37;;;;;;;12.07;7.13;;;0.70;99.90;;;;;;5031022;28;20032;-81
2021/12/03 05:29:05;;;;;;;15.75;7.43;;;0.70;99.90;;;;;;5048216;28;20502;-81
2021/12/03 05:31:31;;;;;;;17.35;7.80;;;0.70;99.90;;;;;;5032558;28;20135;-81
2021/12/03 05:33:57;;;;;;;14.43;7.78;;;0.80;99.90;;;;;;5048938;28;20096;-81
2021/12/03 05:36:23;;;;;;;13.25;7.60;;;0.80;99.90;;;;;;5032146;28;20040;-81
2021/12/03 05:38:49;;;;;;;16.13;8.10;;;0.80;99.90;;;;;;5048587;28;20531;-81
2021/12/03 05:41:15;;;;;;;15.23;7.28;;;0.80;99.90;;;;;;5047729;28;20045;-81
2021/12/03 05:43:40;;;;;;;17.73;8.43;;;0.90;99.90;;;;;;5048663;28;20052;-81
2021/12/03 05:46:06;;;;;;;13.32;7.03;;;0.90;99.90;;;;;;5047720;28;20041;-81
2021/12/03 05:48:32;;;;;;;14.55;7.30;;;0.90;99.90;;;;;;5048130;28;20656;-81
2021/12/03 05:50:57;;;;;;;14.57;8.05;;;0.90;99.90;;;;;;5048353;28;20036;-81
2021/12/03 05:53:23;;;;;;;24.75;8.43;;;0.90;99.90;;;;;;5048307;28;20124;-81
2021/12/03 05:55:48;;;;;;;11.73;7.75;;;0.90;99.90;;;;;;5048109;28;20048;-81
2021/12/03 05:58:16;;;;;;;11.93;7.20;;;0.90;99.90;;;;;;5047630;28;20044;-81
2021/12/03 06:00:42;;;;;;;18.40;7.35;;;0.90;99.90;;;;;;5030660;28;20045;-81
2021/12/03 06:03:08;;;;;;;14.43;6.75;;;0.90;99.90;;;;;;5065554;28;20040;-81
2021/12/03 06:05:35;;;;;;;14.18;6.88;;;1.00;99.90;;;;;;5047620;28;20033;-80
2021/12/03 06:08:00;;;;;;;13.35;7.00;;;1.00;99.90;;;;;;5047397;28;20052;-81
2021/12/03 06:10:27;;;;;;;15.98;7.28;;;1.00;99.90;;;;;;5048011;28;20418;-81
2021/12/03 06:12:53;;;;;;;11.02;7.05;;;1.00;99.90;;;;;;5047248;28;20041;-81
2021/12/03 06:15:19;;;;;;;11.25;7.07;;;0.90;99.90;;;;;;5047872;28;20403;-81
2021/12/03 06:17:45;;;;;;;12.07;6.80;;;1.00;99.90;;;;;;5047930;28;20079;-81
2021/12/03 06:20:12;;;;;;;13.50;7.63;;;1.00;99.90;;;;;;5046115;28;20499;-84
2021/12/03 06:22:39;;;;;;;16.33;6.95;;;1.00;99.90;;;;;;5020558;28;20033;-84
2021/12/03 06:25:07;;;;;;;14.95;7.57;;;1.10;99.90;;;;;;5053677;28;20040;-85
2021/12/03 06:27:32;;;;;;;13.02;7.40;;;1.00;99.90;;;;;;5035958;28;20510;-84
2021/12/03 06:29:58;;;;;;;11.05;6.57;;;1.10;99.90;;;;;;5039063;28;20037;-84
2021/12/03 06:32:24;;;;;;;12.10;6.53;;;1.20;99.90;;;;;;5039496;28;20044;-84
2021/12/03 06:34:51;;;;;;;12.98;7.20;;;1.10;99.90;;;;;;5039244;28;20120;-84
2021/12/03 06:37:16;;;;;;;15.70;6.95;;;1.20;99.90;;;;;;5021558;28;20037;-84
2021/12/03 06:39:42;;;;;;;15.63;7.75;;;1.20;99.90;;;;;;5038616;28;20604;-84
2021/12/03 06:42:08;;;;;;;17.90;7.78;;;1.20;99.90;;;;;;5038131;28;20048;-84
2021/12/03 06:44:34;;;;;;;13.80;7.30;;;1.20;99.90;;;;;;5020384;28;20088;-85
2021/12/03 06:47:02;;;;;;;13.48;7.10;;;1.20;99.90;;;;;;4999297;28;20083;-85
2021/12/03 06:49:29;;;;;;;15.52;7.00;;;1.20;99.90;;;;;;5017308;28;20045;-85
2021/12/03 06:52:01;;;;;;;11.93;6.90;;;1.30;99.90;;;;;;5033226;28;20098;-85
2021/12/03 06:54:30;;;;;;;14.23;6.82;;;1.30;99.90;;;;;;5022087;28;20030;-84
2021/12/03 06:56:55;;;;;;;17.50;7.63;;;1.30;99.90;;;;;;5032523;28;20112;-84
2021/12/03 06:59:23;;;;;;;15.32;7.05;;;1.30;99.90;;;;;;5037408;28;20075;-83
2021/12/03 07:01:50;;;;;;;20.38;7.47;;;1.30;99.90;;;;;;5039067;28;20083;-82
2021/12/03 07:04:17;;;;;;;15.40;7.63;;;1.40;99.90;;;;;;5047891;28;20051;-81
2021/12/03 07:06:42;;;;;;;16.70;8.10;;;1.40;99.90;;;;;;5046685;28;20044;-81
2021/12/03 07:09:09;;;;;;;16.48;7.90;;;1.40;99.90;;;;;;5047391;28;20040;-81
2021/12/03 07:11:34;;;;;;;14.20;7.97;;;1.40;99.90;;;;;;5047125;28;20434;-81
2021/12/03 07:14:01;;;;;;;18.30;8.02;;;1.40;99.90;;;;;;5036439;28;20044;-82
2021/12/03 07:16:26;;;;;;;19.25;7.63;;;1.40;99.90;;;;;;5036467;28;20037;-82
2021/12/03 07:18:52;;;;;;;18.27;8.48;;;1.50;99.90;;;;;;5053055;28;20061;-82
2021/12/03 07:21:18;;;;;;;15.77;7.85;;;1.40;99.90;;;;;;5052831;28;20045;-82
2021/12/03 07:23:44;;;;;;;18.80;7.53;;;1.50;99.90;;;;;;5033423;28;20043;-78
2021/12/03 07:26:09;;;;;;;15.70;7.97;;;1.50;99.90;;;;;;5037266;28;20045;-75
2021/12/03 07:28:35;;;;;;;15.45;7.30;;;1.50;99.90;;;;;;5044947;28;20087;-80
2021/12/03 07:31:01;;;;;;;16.90;8.75;;;1.50;99.90;;;;;;5041159;28;20051;-79
2021/12/03 07:33:29;;;;;;;19.48;8.27;;;1.50;99.90;;;;;;5027378;28;20049;-79
2021/12/03 07:35:55;;;;;;;16.35;7.90;;;1.50;99.90;;;;;;5061453;28;20082;-79
2021/12/03 07:38:21;;;;;;;15.68;7.63;;;1.50;99.90;;;;;;5043404;28;20079;-79
2021/12/03 07:40:49;;;;;;;19.67;9.07;;;1.50;99.90;;;;;;5044088;28;20049;-79
2021/12/03 07:43:16;;;;;;;14.95;7.35;;;1.50;99.90;;;;;;5044201;28;20041;-79
2021/12/03 07:45:43;;;;;;;15.52;7.82;;;1.60;99.90;;;;;;5044416;28;20118;-79
2021/12/03 07:48:08;;;;;;;18.00;8.45;;;1.60;99.90;;;;;;5044680;28;20048;-79
2021/12/03 07:50:36;;;;;;;19.63;8.90;;;1.60;99.90;;;;;;5061957;28;20037;-80
2021/12/03 07:53:03;;;;;;;18.33;9.13;;;1.70;99.90;;;;;;5044836;28;20047;-79
2021/12/03 07:55:29;;;;;;;25.73;10.45;;;1.70;99.90;;;;;;5044664;28;20082;-80
2021/12/03 07:57:55;;;;;;;21.60;11.27;;;1.70;99.90;;;;;;5044551;28;20419;-79
2021/12/03 08:00:21;;;;;;;24.92;10.82;;;1.80;99.90;;;;;;5042926;28;20131;-79
2021/12/03 08:02:47;;;;;;;22.98;11.10;;;1.80;99.90;;;;;;5042047;28;20451;-78
2021/12/03 08:05:12;;;;;;;23.17;11.60;;;1.80;99.90;;;;;;5041782;28;20545;-79
2021/12/03 08:07:39;;;;;;;22.77;11.15;;;1.80;99.90;;;;;;5024448;28;20036;-78
2021/12/03 08:10:06;;;;;;;23.13;10.18;;;1.80;99.90;;;;;;5021976;28;20608;-76
2021/12/03 08:12:31;;;;;;;22.50;10.63;;;1.90;99.90;;;;;;5021203;28;20045;-79
2021/12/03 08:14:57;;;;;;;24.13;12.98;;;1.90;99.90;;;;;;5041145;28;20036;-79
2021/12/03 08:17:22;;;;;;;25.67;11.57;;;2.00;99.90;;;;;;5041808;28;20056;-79
2021/12/03 08:19:48;;;;;;;28.67;12.57;;;1.90;99.90;;;;;;5047616;28;20048;-80
2021/12/03 08:22:14;;;;;;;26.45;12.27;;;2.00;99.90;;;;;;5048132;28;20041;-80
2021/12/03 08:24:39;;;;;;;24.58;12.07;;;2.00;99.90;;;;;;5044061;28;20044;-79
2021/12/03 08:27:05;;;;;;;28.33;15.00;;;2.00;99.90;;;;;;5044205;28;20074;-79
2021/12/03 08:29:30;;;;;;;27.35;13.38;;;2.10;99.90;;;;;;5041157;28;20522;-79
2021/12/03 08:31:56;;;;;;;26.05;12.13;;;2.10;99.90;;;;;;5056061;28;20094;-79
2021/12/03 08:34:22;;;;;;;29.38;13.75;;;2.10;99.90;;;;;;5047097;28;20128;-79
2021/12/03 08:36:47;;;;;;;23.67;13.60;;;2.10;99.90;;;;;;5053884;28;20049;-79
2021/12/03 08:39:13;;;;;;;28.60;13.88;;;2.10;99.90;;;;;;5064530;28;20041;-78
2021/12/03 08:41:38;;;;;;;27.58;13.18;;;2.20;99.90;;;;;;5038617;28;20036;-79
2021/12/03 08:44:05;;;;;;;31.27;14.30;;;2.20;99.90;;;;;;5038932;28;20051;-79
2021/12/03 08:49:06;;;;;;;28.27;14.40;;;2.30;99.90;;;;;;5038665;28;20083;-79
2021/12/03 08:51:37;;;;;;;33.03;15.15;;;2.30;99.90;;;;;;5037501;28;20049;-79
2021/12/03 08:56:47;;;;;;;39.67;14.50;;;2.40;99.90;;;;;;5038485;28;20048;-78
2021/12/03 08:59:15;;;;;;;31.50;13.57;;;2.40;99.90;;;;;;5055415;28;20033;-79
2021/12/03 09:01:42;;;;;;;32.65;14.38;;;2.50;99.90;;;;;;5038308;28;20068;-78
2021/12/03 09:04:08;;;;;;;31.38;14.32;;;2.50;99.90;;;;;;5042015;28;20064;-82
2021/12/03 09:06:34;;;;;;;36.53;15.00;;;2.50;99.90;;;;;;5042085;28;20311;-82
2021/12/03 09:09:00;;;;;;;30.83;12.73;;;2.50;99.90;;;;;;5024755;28;20041;-79
2021/12/03 09:11:28;;;;;;;26.35;13.57;;;2.60;99.90;;;;;;5040038;28;20106;-81
2021/12/03 09:13:54;;;;;;;33.42;14.93;;;2.60;99.90;;;;;;5024743;28;20044;-81
2021/12/03 09:16:21;;;;;;;31.27;13.55;;;2.60;99.90;;;;;;5046217;28;20045;-80
2021/12/03 09:18:48;;;;;;;27.83;12.07;;;2.70;99.90;;;;;;5049057;28;20106;-80
2021/12/03 09:21:23;;;;;;;32.25;12.35;;;2.70;99.90;;;;;;5032565;28;20498;-80
2021/12/03 09:26:28;;;;;;;27.40;13.65;;;2.70;99.90;;;;;;5040505;28;20053;-82
2021/12/03 09:29:02;;;;;;;31.98;11.85;;;2.80;99.90;;;;;;5040913;28;20045;-81
2021/12/03 09:31:28;;;;;;;35.70;12.93;;;2.80;99.90;;;;;;5041294;28;20063;-81
2021/12/03 09:33:56;;;;;;;29.70;11.93;;;2.80;99.90;;;;;;5041456;28;20041;-82
2021/12/03 09:36:21;;;;;;;29.83;11.60;;;2.80;99.90;;;;;;5039830;28;20049;-82
2021/12/03 09:38:47;;;;;;;30.50;12.43;;;2.80;99.90;;;;;;5040900;28;20043;-81
2021/12/03 09:41:16;;;;;;;27.30;11.70;;;2.80;99.90;;;;;;5041582;28;20052;-81
2021/12/03 09:43:46;;;;;;;32.72;11.60;;;2.90;99.90;;;;;;5024334;28;20059;-80
2021/12/03 09:46:16;;;;;;;23.92;10.18;;;2.90;99.90;;;;;;5039376;28;20087;-81
2021/12/03 09:51:38;;;;;;;28.05;9.30;;;3.10;99.90;;;;;;5035892;28;20049;-79
2021/12/03 09:56:36;;;;;;;19.95;8.30;;;3.30;99.90;;;;;;5040618;28;20107;-81
2021/12/03 09:59:31;;;;;;;19.58;7.50;;;3.30;99.90;;;;;;5042601;28;20041;-81
2021/12/03 10:02:19;;;;;;;11.82;5.60;;;3.30;99.90;;;;;;5025039;28;20040;-81
2021/12/03 10:15:30;;;;;;;21.95;6.65;;;3.50;99.90;;;;;;5041602;28;20049;-81
2021/12/03 10:18:07;;;;;;;20.15;5.97;;;3.50;99.90;;;;;;5026496;28;20037;-81
2021/12/03 10:20:39;;;;;;;18.60;5.88;;;3.50;99.90;;;;;;5041055;28;20124;-81
2021/12/03 10:31:43;;;;;;;14.65;5.05;;;3.50;99.90;;;;;;5039640;28;20041;-80
2021/12/03 10:34:12;;;;;;;20.47;6.47;;;3.50;99.90;;;;;;5037672;28;20072;-80
2021/12/03 10:57:44;;;;;;;14.98;4.88;;;3.60;99.90;;;;;;5037855;28;20084;-80
2021/12/03 11:08:36;;;;;;;14.03;4.97;;;3.50;99.90;;;;;;5034341;28;20080;-78
2021/12/03 12:00:36;;;;;;;8.55;2.83;;;3.20;99.90;;;;;;5025577;28;20049;-76
2021/12/03 12:14:56;;;;;;;7.10;2.55;;;3.20;99.90;;;;;;5037022;28;20091;-76
2021/12/03 12:17:45;;;;;;;12.32;3.47;;;3.10;99.90;;;;;;5037077;28;20068;-76
2021/12/03 12:37:54;;;;;;;6.38;2.65;;;3.10;99.90;;;;;;5039642;28;20080;-78
2021/12/03 12:43:45;;;;;;;;;;;3.10;99.90;;;;;;5017405;28;20498;-81
2021/12/03 13:10:44;;;;;;;17.83;4.25;;;3.60;99.90;;;;;;5038432;28;20045;-80
2021/12/03 14:07:41;;;;;;;11.75;4.75;;;4.00;99.90;;;;;;5040524;28;20053;-81
2021/12/03 14:39:47;;;;;;;9.68;3.45;;;4.10;99.90;;;;;;5042242;28;20105;-80
2021/12/03 14:42:47;;;;;;;9.57;3.28;;;4.20;99.90;;;;;;5026204;28;20060;-80
2021/12/03 14:54:32;;;;;;;10.10;3.38;;;4.20;99.90;;;;;;5037938;28;20051;-79
2021/12/03 15:00:08;;;;;;;7.28;3.00;;;4.20;99.90;;;;;;5038394;28;20080;-80
2021/12/03 15:02:50;;;;;;;6.68;3.03;;;4.20;99.90;;;;;;5036792;28;20049;-79
2021/12/03 15:05:45;;;;;;;11.80;3.72;;;4.20;99.90;;;;;;5017802;28;20037;-78
2021/12/03 15:08:06;;;;;;;6.57;3.33;;;4.20;99.90;;;;;;5050889;28;20045;-77
2021/12/03 15:11:38;;;;;;;5.93;3.67;;;4.20;99.90;;;;;;5051673;28;20037;-78
2021/12/03 15:19:33;;;;;;;7.30;3.40;;;4.20;99.90;;;;;;5051443;28;20491;-77
2021/12/03 15:21:54;;;;;;;7.15;3.65;;;4.20;99.90;;;;;;5040704;28;20053;-78
2021/12/03 15:34:44;;;;;;;8.77;4.22;;;4.20;99.90;;;;;;5038628;28;20055;-79
2021/12/03 15:39:53;;;;;;;10.38;4.85;;;4.10;99.90;;;;;;5049733;28;20053;-81
2021/12/03 15:58:34;;;;;;;5.78;3.95;;;4.10;99.90;;;;;;5049000;28;20052;-82
2021/12/03 16:04:01;;;;;;;6.57;4.45;;;4.20;99.90;;;;;;5049287;28;20503;-80
2021/12/03 16:09:00;;;;;;;6.95;4.78;;;4.20;99.90;;;;;;5047998;28;20064;-81
2021/12/03 16:14:14;;;;;;;8.35;4.72;;;4.20;99.90;;;;;;5046843;28;20056;-81
2021/12/03 16:51:27;;;;;;;8.35;5.72;;;4.20;99.90;;;;;;5045532;28;20051;-81
2021/12/03 16:53:57;;;;;;;7.80;5.32;;;4.20;99.90;;;;;;5046542;28;20045;-81
2021/12/03 16:56:27;;;;;;;8.18;5.38;;;4.20;99.90;;;;;;5046726;28;20078;-81
2021/12/03 16:58:55;;;;;;;11.45;5.40;;;4.20;99.90;;;;;;5031228;28;20033;-81
2021/12/03 17:09:18;;;;;;;6.53;5.45;;;4.30;99.90;;;;;;5047339;28;20049;-81
2021/12/03 17:14:59;;;;;;;8.25;5.53;;;4.20;99.90;;;;;;5048454;28;20327;-81
2021/12/03 17:49:22;;;;;;;13.68;8.25;;;4.20;99.90;;;;;;5046844;28;20122;-81
2021/12/03 17:57:39;;;;;;;11.32;7.75;;;4.20;99.90;;;;;;5022876;28;20109;-80
2021/12/03 18:00:20;;;;;;;11.88;8.23;;;4.20;99.90;;;;;;5051389;28;20060;-81
2021/12/03 18:02:49;;;;;;;11.18;8.07;;;4.20;99.90;;;;;;5037534;28;20096;-79
2021/12/03 18:53:01;;;;;;;15.13;9.95;;;4.30;99.90;;;;;;5037793;28;20048;-80
2021/12/03 18:57:59;;;;;;;17.27;11.15;;;4.30;99.90;;;;;;5037602;28;20181;-80
2021/12/03 19:00:28;;;;;;;18.77;11.23;;;4.30;99.90;;;;;;5020097;28;20037;-80
2021/12/03 19:02:56;;;;;;;18.45;11.18;;;4.30;99.90;;;;;;5037748;28;20041;-80
2021/12/03 19:05:38;;;;;;;21.42;10.45;;;4.30;99.90;;;;;;5036855;28;20380;-80
2021/12/03 19:08:10;;;;;;;21.77;10.93;;;4.30;99.90;;;;;;5036487;28;20071;-80
2021/12/03 19:10:43;;;;;;;16.15;10.18;;;4.30;99.90;;;;;;5036450;28;20057;-80
2021/12/03 19:13:13;;;;;;;19.40;10.73;;;4.30;99.90;;;;;;5036692;28;20033;-80
2021/12/03 19:15:41;;;;;;;14.65;9.95;;;4.40;99.90;;;;;;5036698;28;20041;-80
2021/12/03 19:18:07;;;;;;;17.17;10.43;;;4.30;99.90;;;;;;5036575;28;20047;-80
2021/12/03 19:20:37;;;;;;;19.40;10.20;;;4.40;99.90;;;;;;5036300;28;20329;-80
2021/12/03 19:23:02;;;;;;;17.90;10.13;;;4.40;99.90;;;;;;5036820;28;20048;-78
2021/12/03 19:25:28;;;;;;;16.00;9.85;;;4.40;99.90;;;;;;5021222;28;20045;-79
2021/12/03 19:27:54;;;;;;;16.30;10.00;;;4.40;99.90;;;;;;5021407;28;20407;-79
2021/12/03 19:30:20;;;;;;;16.35;10.30;;;4.30;99.90;;;;;;5022533;28;20047;-79
2021/12/03 19:32:45;;;;;;;16.95;10.30;;;4.30;99.90;;;;;;5021441;28;20033;-80
2021/12/03 19:35:11;;;;;;;20.98;10.38;;;4.30;99.90;;;;;;5038211;28;20506;-79
2021/12/03 19:37:38;;;;;;;20.40;10.80;;;4.40;99.90;;;;;;5020811;28;20120;-79
2021/12/03 19:40:08;;;;;;;17.42;10.15;;;4.40;99.90;;;;;;5055494;28;20033;-82
2021/12/03 19:42:56;;;;;;;20.05;10.57;;;4.40;99.90;;;;;;5054833;28;20036;-80
2021/12/03 19:45:24;;;;;;;13.35;8.23;;;4.30;99.90;;;;;;5054887;28;20177;-79
2021/12/03 19:48:02;;;;;;;16.92;10.48;;;4.40;99.90;;;;;;5036857;28;20125;-79
2021/12/03 19:53:09;;;;;;;19.80;10.23;;;4.40;99.90;;;;;;5056506;28;20056;-78
2021/12/03 19:55:38;;;;;;;18.63;10.10;;;4.40;99.90;;;;;;5022865;28;20064;-80
2021/12/03 19:58:09;;;;;;;17.77;10.05;;;4.40;99.90;;;;;;5055197;28;20037;-79
2021/12/03 20:00:37;;;;;;;20.27;11.27;;;4.40;99.90;;;;;;5021109;28;20037;-79
2021/12/03 20:03:03;;;;;;;19.20;10.52;;;4.40;99.90;;;;;;5037842;28;20377;-81
2021/12/03 20:05:28;;;;;;;19.33;10.10;;;4.40;99.90;;;;;;5036514;28;20554;-79
2021/12/03 20:07:56;;;;;;;19.63;10.60;;;4.40;99.90;;;;;;5053710;28;20134;-82
2021/12/03 20:10:24;;;;;;;17.50;10.02;;;4.30;99.90;;;;;;5036432;28;20055;-80
2021/12/03 20:12:51;;;;;;;15.95;8.95;;;4.40;99.90;;;;;;5019076;28;20127;-79